Time;durP1;ratioP1;P1;durP2;ratioP2;P2;SDS_P1;SDS_P2;PMS_P1;PMS_P2;Temp;Humidity;BMP_temperature;BMP_pressure;BME280_temperature;BME280_humidity;BME280_pressure;Samples;Min_cycle;Max_cycle;Signal;HPM_P1;HPM_P2
2024/04/23 00:02:08;;;;;;;5.68;2.75;;;;;;;;;;5391853;26;20005;-51
2024/04/23 00:04:33;;;;;;;9.63;3.97;;;;;;;;;;5392195;26;20008;-55
2024/04/23 00:07:00;;;;;;;7.57;3.15;;;;;;;;;;5396531;26;20005;-55
2024/04/23 00:09:26;;;;;;;5.93;3.10;;;;;;;;;;5392561;26;19996;-54
2024/04/23 00:11:51;;;;;;;6.28;2.80;;;;;;;;;;5392099;26;20028;-53
2024/04/23 00:14:18;;;;;;;7.05;3.55;;;;;;;;;;5380466;26;20012;-57
2024/04/23 00:16:43;;;;;;;8.33;3.40;;;;;;;;;;5376090;26;20054;-53
2024/04/23 00:19:09;;;;;;;6.00;3.00;;;;;;;;;;5372370;26;20004;-57
2024/04/23 00:21:34;;;;;;;8.03;3.57;;;;;;;;;;5384805;26;20004;-56
2024/04/23 00:23:59;;;;;;;9.10;3.27;;;;;;;;;;5373195;26;20008;-53
2024/04/23 00:26:24;;;;;;;7.53;3.30;;;;;;;;;;5384481;26;20066;-54
2024/04/23 00:28:51;;;;;;;7.23;3.10;;;;;;;;;;5384413;26;20029;-54
2024/04/23 00:31:17;;;;;;;4.50;2.47;;;;;;;;;;5381372;26;20006;-56
2024/04/23 00:33:42;;;;;;;5.47;2.90;;;;;;;;;;5380889;26;20005;-52
2024/04/23 00:36:08;;;;;;;6.60;3.55;;;;;;;;;;5384173;26;20012;-55
2024/04/23 00:38:33;;;;;;;8.13;2.93;;;;;;;;;;5384004;26;20001;-55
2024/04/23 00:40:59;;;;;;;7.63;3.27;;;;;;;;;;5386476;26;20314;-51
2024/04/23 00:43:24;;;;;;;7.75;3.72;;;;;;;;;;5381979;26;20059;-54
2024/04/23 00:45:54;;;;;;;6.80;3.43;;;;;;;;;;5393951;26;20004;-55
2024/04/23 00:48:20;;;;;;;8.68;3.97;;;;;;;;;;5389641;26;20032;-53
2024/04/23 00:50:45;;;;;;;10.17;4.10;;;;;;;;;;5394426;26;20007;-54
2024/04/23 00:53:12;;;;;;;12.32;4.13;;;;;;;;;;5387842;26;20250;-55
2024/04/23 00:55:38;;;;;;;8.77;3.95;;;;;;;;;;5392694;26;20008;-54
2024/04/23 00:58:04;;;;;;;7.28;3.70;;;;;;;;;;5394041;26;20009;-54
2024/04/23 01:00:30;;;;;;;8.32;3.83;;;;;;;;;;5393120;26;20000;-54
2024/04/23 01:02:56;;;;;;;6.95;3.58;;;;;;;;;;5390796;26;20008;-50
2024/04/23 01:05:22;;;;;;;7.63;3.80;;;;;;;;;;5395129;26;20010;-53
2024/04/23 01:07:47;;;;;;;9.10;3.50;;;;;;;;;;5392972;26;20000;-56
2024/04/23 01:10:12;;;;;;;12.07;3.83;;;;;;;;;;5392290;26;20000;-54
2024/04/23 01:12:38;;;;;;;9.37;3.57;;;;;;;;;;5386969;26;20062;-54
2024/04/23 01:15:04;;;;;;;10.15;3.90;;;;;;;;;;5393055;26;20592;-55
2024/04/23 01:17:30;;;;;;;6.88;3.50;;;;;;;;;;5394089;26;19996;-54
2024/04/23 01:19:58;;;;;;;6.40;3.30;;;;;;;;;;5392711;26;20001;-55
2024/04/23 01:22:34;;;;;;;10.57;4.28;;;;;;;;;;5390547;26;20010;-55
2024/04/23 01:25:22;;;;;;;8.27;4.15;;;;;;;;;;5389766;26;20011;-55
2024/04/23 01:27:48;;;;;;;13.52;4.53;;;;;;;;;;5380844;26;20000;-57
2024/04/23 01:30:15;;;;;;;7.88;4.07;;;;;;;;;;5391906;26;20140;-54
2024/04/23 01:33:01;;;;;;;9.75;4.07;;;;;;;;;;5392575;26;20087;-51
2024/04/23 01:35:26;;;;;;;9.02;4.10;;;;;;;;;;5390712;26;20046;-54
2024/04/23 01:37:53;;;;;;;7.57;4.13;;;;;;;;;;5392314;26;20004;-56
2024/04/23 01:40:18;;;;;;;8.40;4.10;;;;;;;;;;5389440;26;19997;-56
2024/04/23 01:42:44;;;;;;;9.35;3.72;;;;;;;;;;5389499;26;20046;-56
2024/04/23 01:45:15;;;;;;;8.13;4.28;;;;;;;;;;5390681;26;20329;-53
2024/04/23 01:47:40;;;;;;;6.50;3.42;;;;;;;;;;5389928;26;20004;-55
2024/04/23 01:50:06;;;;;;;13.23;4.53;;;;;;;;;;5392678;26;21238;-55
2024/04/23 01:52:32;;;;;;;9.67;3.63;;;;;;;;;;5390566;26;20000;-57
2024/04/23 01:54:57;;;;;;;9.00;3.93;;;;;;;;;;5389210;26;20115;-56
2024/04/23 01:57:22;;;;;;;6.33;3.73;;;;;;;;;;5390101;26;20008;-56
2024/04/23 01:59:49;;;;;;;8.73;3.53;;;;;;;;;;5391460;26;20015;-54
2024/04/23 02:02:16;;;;;;;9.55;3.60;;;;;;;;;;5389546;26;20007;-57
2024/04/23 02:04:42;;;;;;;7.60;4.10;;;;;;;;;;5361641;26;20008;-56
2024/04/23 02:07:08;;;;;;;7.63;4.10;;;;;;;;;;5391635;26;20059;-56
2024/04/23 02:09:33;;;;;;;8.57;4.47;;;;;;;;;;5388432;26;20001;-57
2024/04/23 02:12:01;;;;;;;10.00;4.50;;;;;;;;;;5359113;26;20278;-57
2024/04/23 02:14:26;;;;;;;7.75;4.25;;;;;;;;;;5390687;26;20000;-56
2024/04/23 02:16:52;;;;;;;8.13;4.00;;;;;;;;;;5395463;26;20008;-56
2024/04/23 02:19:17;;;;;;;7.10;3.77;;;;;;;;;;5390442;26;20008;-57
2024/04/23 02:21:43;;;;;;;7.60;4.00;;;;;;;;;;5392270;26;20050;-55
2024/04/23 02:24:08;;;;;;;10.17;3.70;;;;;;;;;;5391053;26;20062;-56
2024/04/23 02:26:34;;;;;;;9.85;4.22;;;;;;;;;;5393645;26;20012;-51
2024/04/23 02:28:59;;;;;;;10.05;3.95;;;;;;;;;;5393787;26;20011;-53
2024/04/23 02:31:24;;;;;;;9.23;4.67;;;;;;;;;;5392675;26;20049;-55
2024/04/23 02:33:51;;;;;;;14.23;5.47;;;;;;;;;;5388603;26;20011;-55
2024/04/23 02:36:16;;;;;;;7.70;3.83;;;;;;;;;;5387467;26;20015;-54
2024/04/23 02:38:41;;;;;;;12.40;4.60;;;;;;;;;;5384992;26;20001;-53
2024/04/23 02:41:07;;;;;;;12.15;4.75;;;;;;;;;;5392230;26;20062;-54
2024/04/23 02:43:32;;;;;;;10.13;4.70;;;;;;;;;;5391810;26;20053;-55
2024/04/23 02:45:58;;;;;;;9.17;4.77;;;;;;;;;;5385508;26;20019;-54
2024/04/23 02:48:23;;;;;;;12.37;4.40;;;;;;;;;;5384807;26;20243;-55
2024/04/23 02:50:48;;;;;;;9.73;4.40;;;;;;;;;;5391996;26;20015;-57
2024/04/23 02:53:14;;;;;;;9.23;4.57;;;;;;;;;;5389571;26;20013;-56
2024/04/23 02:55:39;;;;;;;10.18;3.85;;;;;;;;;;5394605;26;20036;-54
2024/04/23 02:58:05;;;;;;;11.23;4.80;;;;;;;;;;5392493;26;20004;-53
2024/04/23 03:00:30;;;;;;;9.47;4.60;;;;;;;;;;5392194;26;20016;-54
2024/04/23 03:02:56;;;;;;;11.13;5.10;;;;;;;;;;5394374;26;20299;-51
2024/04/23 03:05:21;;;;;;;8.80;4.67;;;;;;;;;;5394755;26;20049;-51
2024/04/23 03:07:47;;;;;;;11.73;5.87;;;;;;;;;;5392318;26;20295;-52
2024/04/23 03:10:12;;;;;;;11.67;4.57;;;;;;;;;;5396118;26;20011;-54
2024/04/23 03:12:38;;;;;;;11.75;5.13;;;;;;;;;;5394156;26;20114;-56
2024/04/23 03:15:04;;;;;;;10.75;4.82;;;;;;;;;;5392638;26;20004;-56
2024/04/23 03:17:29;;;;;;;11.17;5.27;;;;;;;;;;5390427;26;20011;-51
2024/04/23 03:19:54;;;;;;;10.40;5.30;;;;;;;;;;5391716;26;20018;-56
2024/04/23 03:22:19;;;;;;;10.63;5.40;;;;;;;;;;5388923;26;20001;-54
2024/04/23 03:24:45;;;;;;;11.50;5.40;;;;;;;;;;5390451;26;19996;-53
2024/04/23 03:27:11;;;;;;;12.13;5.40;;;;;;;;;;5391365;26;20042;-53
2024/04/23 03:29:36;;;;;;;10.85;4.80;;;;;;;;;;5390697;26;19997;-57
2024/04/23 03:32:03;;;;;;;9.43;4.45;;;;;;;;;;5391604;26;20011;-55
2024/04/23 03:34:29;;;;;;;12.55;5.45;;;;;;;;;;5389876;26;20015;-52
2024/04/23 03:36:54;;;;;;;10.95;5.88;;;;;;;;;;5391568;26;20007;-55
2024/04/23 03:39:19;;;;;;;14.23;5.80;;;;;;;;;;5393541;26;20000;-53
2024/04/23 03:41:54;;;;;;;11.73;5.47;;;;;;;;;;5364648;26;19996;-58
2024/04/23 03:44:20;;;;;;;10.88;5.45;;;;;;;;;;5388742;26;20005;-55
2024/04/23 03:46:45;;;;;;;13.53;5.90;;;;;;;;;;5394387;26;20015;-54
2024/04/23 03:49:10;;;;;;;14.20;5.60;;;;;;;;;;5392668;26;20231;-55
2024/04/23 03:51:36;;;;;;;12.30;6.15;;;;;;;;;;5379365;26;20015;-50
2024/04/23 03:54:02;;;;;;;9.07;4.17;;;;;;;;;;5381376;26;20015;-56
2024/04/23 03:56:27;;;;;;;13.73;6.00;;;;;;;;;;5389257;26;20385;-53
2024/04/23 03:58:53;;;;;;;13.95;5.70;;;;;;;;;;5391239;26;20030;-54
2024/04/23 04:01:18;;;;;;;14.20;6.50;;;;;;;;;;5391902;26;20001;-54
2024/04/23 04:06:28;;;;;;;12.82;6.40;;;;;;;;;;5389017;26;20004;-57
2024/04/23 04:08:53;;;;;;;14.63;6.47;;;;;;;;;;5390679;26;20031;-55
2024/04/23 04:11:18;;;;;;;17.03;6.33;;;;;;;;;;5387206;26;20004;-54
2024/04/23 04:13:44;;;;;;;12.10;6.10;;;;;;;;;;5382754;26;20001;-55
2024/04/23 04:16:09;;;;;;;12.52;6.03;;;;;;;;;;5391434;26;20015;-56
2024/04/23 04:18:37;;;;;;;13.10;6.03;;;;;;;;;;5393533;26;20029;-52
2024/04/23 04:21:04;;;;;;;10.25;5.78;;;;;;;;;;5362763;26;20012;-57
2024/04/23 04:23:29;;;;;;;11.40;6.18;;;;;;;;;;5376344;26;20019;-52
2024/04/23 04:25:55;;;;;;;22.23;6.10;;;;;;;;;;5382104;26;20012;-58
2024/04/23 04:28:21;;;;;;;10.63;5.82;;;;;;;;;;5378512;26;20008;-56
2024/04/23 04:30:46;;;;;;;17.67;5.90;;;;;;;;;;5375145;26;19997;-56
2024/04/23 04:33:11;;;;;;;12.87;6.13;;;;;;;;;;5379737;26;20330;-55
2024/04/23 04:35:37;;;;;;;16.23;6.60;;;;;;;;;;5381311;26;19996;-56
2024/04/23 04:38:03;;;;;;;10.38;5.28;;;;;;;;;;5389083;26;20000;-55
2024/04/23 04:40:30;;;;;;;15.95;7.18;;;;;;;;;;5388655;26;20011;-56
2024/04/23 04:42:56;;;;;;;18.42;6.78;;;;;;;;;;5393089;26;19992;-55
2024/04/23 04:45:21;;;;;;;16.15;6.40;;;;;;;;;;5384914;26;20000;-57
2024/04/23 04:47:49;;;;;;;18.57;6.73;;;;;;;;;;5392870;26;20046;-56
2024/04/23 04:50:14;;;;;;;14.13;6.82;;;;;;;;;;5388717;26;20046;-56
2024/04/23 04:52:40;;;;;;;20.60;7.20;;;;;;;;;;5394546;26;20004;-57
2024/04/23 04:55:05;;;;;;;12.82;6.78;;;;;;;;;;5387270;26;20011;-52
2024/04/23 04:57:34;;;;;;;14.30;7.43;;;;;;;;;;5389567;26;20007;-56
2024/04/23 04:59:59;;;;;;;13.98;6.88;;;;;;;;;;5358579;26;20266;-56
2024/04/23 05:02:25;;;;;;;15.02;6.47;;;;;;;;;;5389196;26;20000;-56
2024/04/23 05:04:50;;;;;;;14.40;7.10;;;;;;;;;;5388352;26;19996;-54
2024/04/23 05:07:16;;;;;;;19.10;8.60;;;;;;;;;;5389920;26;20310;-54
2024/04/23 05:09:42;;;;;;;15.50;7.30;;;;;;;;;;5393752;26;20242;-57
2024/04/23 05:12:08;;;;;;;18.20;7.35;;;;;;;;;;5386076;26;20001;-54
2024/04/23 05:14:34;;;;;;;15.48;7.43;;;;;;;;;;5389518;26;20028;-55
2024/04/23 05:16:59;;;;;;;14.23;8.10;;;;;;;;;;5386241;26;20005;-54
2024/04/23 05:19:25;;;;;;;15.07;7.20;;;;;;;;;;5389136;26;19996;-56
2024/04/23 05:21:50;;;;;;;15.93;7.87;;;;;;;;;;5383845;26;20055;-55
2024/04/23 05:24:15;;;;;;;14.83;6.80;;;;;;;;;;5357286;26;20235;-52
2024/04/23 05:26:42;;;;;;;17.27;7.80;;;;;;;;;;5393492;26;20000;-52
2024/04/23 05:29:07;;;;;;;16.40;7.32;;;;;;;;;;5392279;26;20050;-52
2024/04/23 05:34:16;;;;;;;19.92;7.93;;;;;;;;;;5384020;26;20046;-57
2024/04/23 05:36:42;;;;;;;14.93;7.63;;;;;;;;;;5392396;26;19996;-56
2024/04/23 05:39:08;;;;;;;16.33;7.45;;;;;;;;;;5393466;26;20474;-57
2024/04/23 05:41:34;;;;;;;17.17;7.70;;;;;;;;;;5390735;26;20000;-56
2024/04/23 05:44:00;;;;;;;14.23;7.83;;;;;;;;;;5392461;26;20022;-55
2024/04/23 05:46:26;;;;;;;12.40;7.20;;;;;;;;;;5361091;26;20050;-55
2024/04/23 05:49:10;;;;;;;20.17;8.30;;;;;;;;;;5394953;26;20004;-53
2024/04/23 05:52:14;;;;;;;20.58;8.73;;;;;;;;;;5390328;26;20019;-56
2024/04/23 05:55:17;;;;;;;14.98;8.18;;;;;;;;;;5389036;26;20087;-57
2024/04/23 05:57:51;;;;;;;18.92;9.38;;;;;;;;;;5393424;26;20023;-54
2024/04/23 06:00:17;;;;;;;15.40;8.18;;;;;;;;;;5394177;26;20008;-53
2024/04/23 06:02:42;;;;;;;16.27;9.13;;;;;;;;;;5385122;26;20312;-56
2024/04/23 06:05:07;;;;;;;16.13;7.97;;;;;;;;;;5384344;26;20015;-56
2024/04/23 06:07:33;;;;;;;17.60;9.03;;;;;;;;;;5389305;26;20058;-56
2024/04/23 06:09:58;;;;;;;14.17;7.03;;;;;;;;;;5388795;26;20000;-56
2024/04/23 06:12:24;;;;;;;17.23;8.47;;;;;;;;;;5392712;26;20047;-55
2024/04/23 06:14:49;;;;;;;23.27;8.47;;;;;;;;;;5386132;26;20359;-55
2024/04/23 06:17:25;;;;;;;18.75;8.02;;;;;;;;;;5393254;26;20004;-55
2024/04/23 06:19:51;;;;;;;19.50;9.60;;;;;;;;;;5393289;26;20007;-55
2024/04/23 06:22:18;;;;;;;19.93;8.50;;;;;;;;;;5387961;26;20095;-55
2024/04/23 06:24:44;;;;;;;17.55;8.38;;;;;;;;;;5384312;26;20245;-53
2024/04/23 06:27:09;;;;;;;21.97;8.83;;;;;;;;;;5377775;26;20000;-56
2024/04/23 06:29:35;;;;;;;19.00;9.35;;;;;;;;;;5388784;26;20004;-56
2024/04/23 06:32:00;;;;;;;19.08;9.77;;;;;;;;;;5388126;26;20008;-56
2024/04/23 06:34:26;;;;;;;16.20;9.70;;;;;;;;;;5387656;26;20059;-54
2024/04/23 06:36:52;;;;;;;19.20;8.93;;;;;;;;;;5387310;26;20004;-55
2024/04/23 06:39:17;;;;;;;22.70;9.30;;;;;;;;;;5393384;26;20008;-56
2024/04/23 06:41:42;;;;;;;17.87;9.10;;;;;;;;;;5390496;26;20241;-54
2024/04/23 06:44:08;;;;;;;19.10;9.67;;;;;;;;;;5389530;26;20012;-56
2024/04/23 06:46:33;;;;;;;19.00;9.57;;;;;;;;;;5390646;26;20007;-56
2024/04/23 06:48:59;;;;;;;19.07;9.47;;;;;;;;;;5335077;26;20000;-56
2024/04/23 06:51:24;;;;;;;26.60;11.50;;;;;;;;;;5391730;26;20230;-54
2024/04/23 06:53:50;;;;;;;17.87;9.97;;;;;;;;;;5391112;26;20054;-55
2024/04/23 06:56:15;;;;;;;21.87;10.23;;;;;;;;;;5387553;26;20238;-55
2024/04/23 06:58:42;;;;;;;16.57;10.27;;;;;;;;;;5392951;26;20004;-55
2024/04/23 07:01:08;;;;;;;18.67;10.25;;;;;;;;;;5391219;26;20231;-55
2024/04/23 07:03:34;;;;;;;19.90;10.23;;;;;;;;;;5390544;26;20012;-55
2024/04/23 07:05:59;;;;;;;18.67;9.70;;;;;;;;;;5377524;26;20060;-54
2024/04/23 07:08:25;;;;;;;21.73;10.47;;;;;;;;;;5395133;26;20031;-55
2024/04/23 07:10:57;;;;;;;19.80;9.83;;;;;;;;;;5362253;26;20004;-55
2024/04/23 07:13:23;;;;;;;13.25;7.82;;;;;;;;;;5395981;26;20024;-53
2024/04/23 07:15:48;;;;;;;12.57;6.53;;;;;;;;;;5391982;26;20007;-53
2024/04/23 07:18:14;;;;;;;15.98;8.05;;;;;;;;;;5388921;26;20028;-55
2024/04/23 07:20:40;;;;;;;14.70;8.97;;;;;;;;;;5393570;26;20000;-56
2024/04/23 07:23:05;;;;;;;16.03;9.60;;;;;;;;;;5390599;26;20297;-52
2024/04/23 07:25:31;;;;;;;15.90;9.80;;;;;;;;;;5387593;26;20000;-51
2024/04/23 07:27:57;;;;;;;19.20;10.10;;;;;;;;;;5383148;26;20000;-56
2024/04/23 07:30:26;;;;;;;16.45;9.30;;;;;;;;;;5384660;26;20004;-58
2024/04/23 07:32:54;;;;;;;18.40;9.73;;;;;;;;;;5392500;26;20011;-54
2024/04/23 07:35:20;;;;;;;21.63;10.00;;;;;;;;;;5392833;26;20004;-55
2024/04/23 07:37:45;;;;;;;16.35;8.88;;;;;;;;;;5394446;26;20011;-55
2024/04/23 07:40:12;;;;;;;17.40;9.43;;;;;;;;;;5396092;26;20007;-54
2024/04/23 07:42:37;;;;;;;16.60;9.57;;;;;;;;;;5395283;26;20008;-58
2024/04/23 07:45:03;;;;;;;18.80;8.90;;;;;;;;;;5393500;26;20293;-56
2024/04/23 07:47:29;;;;;;;15.98;9.73;;;;;;;;;;5392015;26;20238;-52
2024/04/23 07:49:54;;;;;;;16.10;8.60;;;;;;;;;;5394558;26;20012;-54
2024/04/23 07:52:20;;;;;;;9.00;4.78;;;;;;;;;;5392763;26;20001;-56
2024/04/23 07:54:50;;;;;;;13.37;8.70;;;;;;;;;;5394614;26;20001;-52
2024/04/23 07:57:15;;;;;;;17.67;8.30;;;;;;;;;;5395054;26;20000;-54
2024/04/23 07:59:41;;;;;;;15.77;9.50;;;;;;;;;;5395393;26;20055;-53
2024/04/23 08:02:06;;;;;;;13.23;7.53;;;;;;;;;;5395385;26;20012;-57
2024/04/23 08:04:31;;;;;;;15.97;9.10;;;;;;;;;;5391154;26;20000;-56
2024/04/23 08:06:57;;;;;;;15.07;8.43;;;;;;;;;;5395456;26;20012;-56
2024/04/23 08:09:23;;;;;;;14.07;8.83;;;;;;;;;;5394617;26;20000;-56
2024/04/23 08:11:48;;;;;;;14.23;8.40;;;;;;;;;;5395217;26;20282;-53
2024/04/23 08:14:14;;;;;;;15.77;8.80;;;;;;;;;;5393403;26;20060;-54
2024/04/23 08:16:39;;;;;;;16.57;7.83;;;;;;;;;;5391530;26;20243;-53
2024/04/23 08:19:05;;;;;;;18.60;9.37;;;;;;;;;;5393944;26;20305;-53
2024/04/23 08:21:30;;;;;;;10.80;6.97;;;;;;;;;;5362652;26;20016;-54
2024/04/23 08:23:56;;;;;;;14.13;8.37;;;;;;;;;;5393586;26;20238;-53
2024/04/23 08:26:21;;;;;;;15.60;8.52;;;;;;;;;;5392899;26;20007;-53
2024/04/23 08:28:52;;;;;;;12.63;7.90;;;;;;;;;;5394451;26;20007;-55
2024/04/23 08:31:18;;;;;;;12.20;7.40;;;;;;;;;;5363164;26;20000;-54
2024/04/23 08:33:43;;;;;;;12.80;6.37;;;;;;;;;;5393622;26;20011;-56
2024/04/23 08:36:08;;;;;;;10.95;6.78;;;;;;;;;;5392453;26;20016;-55
2024/04/23 08:38:34;;;;;;;13.90;6.77;;;;;;;;;;5394594;26;20054;-54
2024/04/23 08:41:00;;;;;;;12.47;6.47;;;;;;;;;;5393725;26;20226;-52
2024/04/23 08:43:46;;;;;;;13.32;7.10;;;;;;;;;;5389130;26;19996;-60
2024/04/23 08:46:11;;;;;;;12.50;6.80;;;;;;;;;;5390658;26;19992;-60
2024/04/23 08:48:40;;;;;;;10.75;5.82;;;;;;;;;;5392244;26;20226;-59
2024/04/23 08:51:05;;;;;;;12.73;6.63;;;;;;;;;;5388840;26;20703;-55
2024/04/23 08:53:32;;;;;;;12.80;6.32;;;;;;;;;;5393270;26;20226;-54
2024/04/23 08:56:01;;;;;;;12.18;6.65;;;;;;;;;;5391719;26;20008;-56
2024/04/23 08:58:27;;;;;;;12.13;6.97;;;;;;;;;;5392293;26;20042;-52
2024/04/23 09:00:55;;;;;;;10.20;6.00;;;;;;;;;;5394357;26;20277;-53
2024/04/23 09:03:23;;;;;;;13.07;6.10;;;;;;;;;;5390715;26;20305;-55
2024/04/23 09:05:49;;;;;;;11.30;6.73;;;;;;;;;;5391407;26;20323;-53
2024/04/23 09:08:15;;;;;;;7.93;4.45;;;;;;;;;;5392314;26;20227;-55
2024/04/23 09:10:43;;;;;;;13.02;6.10;;;;;;;;;;5392614;26;20051;-56
2024/04/23 09:13:11;;;;;;;10.70;6.23;;;;;;;;;;5390807;26;20007;-53
2024/04/23 09:15:37;;;;;;;9.43;5.90;;;;;;;;;;5391577;26;20226;-55
2024/04/23 09:18:02;;;;;;;9.73;5.90;;;;;;;;;;5393433;26;20390;-57
2024/04/23 09:20:28;;;;;;;11.88;6.05;;;;;;;;;;5394351;26;20107;-54
2024/04/23 09:22:54;;;;;;;10.00;5.70;;;;;;;;;;5393729;26;19992;-56
2024/04/23 09:25:20;;;;;;;7.47;5.32;;;;;;;;;;5389466;26;20015;-58
2024/04/23 09:27:46;;;;;;;9.18;5.85;;;;;;;;;;5389996;26;20005;-54
2024/04/23 09:30:22;;;;;;;9.53;5.33;;;;;;;;;;5393999;26;20002;-53
2024/04/23 09:32:56;;;;;;;7.43;4.60;;;;;;;;;;5389338;26;19996;-56
2024/04/23 09:35:23;;;;;;;11.70;4.87;;;;;;;;;;5390651;26;20010;-57
2024/04/23 09:37:49;;;;;;;9.17;5.10;;;;;;;;;;5390575;26;20000;-57
2024/04/23 09:40:15;;;;;;;9.43;4.93;;;;;;;;;;5393490;26;19996;-54
2024/04/23 09:42:40;;;;;;;9.00;5.25;;;;;;;;;;5391614;26;20089;-54
2024/04/23 09:45:06;;;;;;;6.72;4.25;;;;;;;;;;5390863;26;20050;-57
2024/04/23 09:47:31;;;;;;;9.75;5.05;;;;;;;;;;5393249;26;20107;-54
2024/04/23 09:49:57;;;;;;;8.52;5.10;;;;;;;;;;5391453;26;20008;-57
2024/04/23 09:52:30;;;;;;;8.50;5.03;;;;;;;;;;5394739;26;20004;-56
2024/04/23 09:54:56;;;;;;;7.43;4.80;;;;;;;;;;5388141;26;20008;-56
2024/04/23 09:57:21;;;;;;;11.37;5.27;;;;;;;;;;5390093;26;20261;-57
2024/04/23 09:59:46;;;;;;;5.30;3.63;;;;;;;;;;5393897;26;19997;-56
2024/04/23 10:02:15;;;;;;;10.77;4.60;;;;;;;;;;5392161;26;19996;-54
2024/04/23 10:04:41;;;;;;;8.93;4.40;;;;;;;;;;5391528;26;20012;-57
2024/04/23 10:07:09;;;;;;;6.35;4.13;;;;;;;;;;5390060;26;20287;-55
2024/04/23 10:09:34;;;;;;;7.67;4.10;;;;;;;;;;5393167;26;20119;-57
2024/04/23 10:12:13;;;;;;;7.28;3.83;;;;;;;;;;5390666;26;20281;-57
2024/04/23 10:14:57;;;;;;;6.80;3.90;;;;;;;;;;5391780;26;20004;-58
2024/04/23 10:17:32;;;;;;;8.67;3.90;;;;;;;;;;5389686;26;20051;-54
2024/04/23 10:19:59;;;;;;;7.30;4.00;;;;;;;;;;5394304;26;20019;-58
2024/04/23 10:22:26;;;;;;;9.63;4.27;;;;;;;;;;5390628;26;20008;-58
2024/04/23 10:24:53;;;;;;;6.40;3.47;;;;;;;;;;5391831;26;20008;-56
2024/04/23 10:27:20;;;;;;;5.33;3.60;;;;;;;;;;5390081;26;20005;-55
2024/04/23 10:29:46;;;;;;;4.80;3.20;;;;;;;;;;5391699;26;20016;-56
2024/04/23 10:32:11;;;;;;;;;;;;;;;;;;5390982;26;20032;-58
2024/04/23 10:34:38;;;;;;;6.80;3.17;;;;;;;;;;5393100;26;19933;-59
2024/04/23 10:37:05;;;;;;;6.70;3.58;;;;;;;;;;5387700;26;20004;-57
2024/04/23 10:39:32;;;;;;;9.30;3.37;;;;;;;;;;5395028;26;20028;-55
2024/04/23 10:41:59;;;;;;;6.87;3.50;;;;;;;;;;5395924;26;20047;-56
2024/04/23 10:44:24;;;;;;;;;;;;;;;;;;5388063;26;20016;-52
2024/04/23 10:46:50;;;;;;;5.20;3.67;;;;;;;;;;5387764;26;19933;-55
2024/04/23 10:49:16;;;;;;;8.40;3.67;;;;;;;;;;5385749;26;20025;-54
2024/04/23 10:51:44;;;;;;;;;;;;;;;;;;5384548;26;20048;-58
2024/04/23 10:54:10;;;;;;;8.80;3.67;;;;;;;;;;5384436;26;19941;-56
2024/04/23 10:56:36;;;;;;;4.63;2.77;;;;;;;;;;5383187;26;20084;-57
2024/04/23 10:59:13;;;;;;;4.73;3.37;;;;;;;;;;5389280;26;20004;-53
2024/04/23 11:01:51;;;;;;;7.17;3.00;;;;;;;;;;5388867;26;20013;-57
2024/04/23 11:04:18;;;;;;;6.33;3.43;;;;;;;;;;5384491;26;20041;-56
2024/04/23 11:06:43;;;;;;;5.17;3.17;;;;;;;;;;5389645;26;20025;-55
2024/04/23 11:09:13;;;;;;;6.90;3.72;;;;;;;;;;5392631;26;20005;-56
2024/04/23 11:11:38;;;;;;;8.43;3.40;;;;;;;;;;5393301;26;20028;-58
2024/04/23 11:14:04;;;;;;;5.80;3.30;;;;;;;;;;5394606;26;20007;-56
2024/04/23 11:16:29;;;;;;;7.95;3.63;;;;;;;;;;5395723;26;19996;-54
2024/04/23 11:18:55;;;;;;;;;;;;;;;;;;5392992;26;20007;-58
2024/04/23 11:21:25;;;;;;;5.73;3.00;;;;;;;;;;5394571;26;19932;-60
2024/04/23 11:23:51;;;;;;;4.47;3.00;;;;;;;;;;5392413;26;20000;-56
2024/04/23 11:26:17;;;;;;;12.27;7.15;;;;;;;;;;5390126;26;20001;-57
2024/04/23 11:28:43;;;;;;;4.60;3.10;;;;;;;;;;5390547;26;20000;-56
2024/04/23 11:31:09;;;;;;;4.95;3.00;;;;;;;;;;5394430;26;20000;-57
2024/04/23 11:33:39;;;;;;;6.35;3.53;;;;;;;;;;5390984;26;20000;-55
2024/04/23 11:36:05;;;;;;;8.23;3.75;;;;;;;;;;5385651;26;20001;-59
2024/04/23 11:38:41;;;;;;;5.70;3.13;;;;;;;;;;5383014;26;20050;-57
2024/04/23 11:41:16;;;;;;;5.50;3.17;;;;;;;;;;5390243;26;20000;-59
2024/04/23 11:43:45;;;;;;;8.25;5.22;;;;;;;;;;5393729;26;20055;-58
2024/04/23 11:46:17;;;;;;;6.95;3.83;;;;;;;;;;5387852;26;20016;-58
2024/04/23 11:48:43;;;;;;;9.63;4.13;;;;;;;;;;5392178;26;20004;-57
2024/04/23 11:51:09;;;;;;;4.97;3.25;;;;;;;;;;5389556;26;20054;-58
2024/04/23 11:53:34;;;;;;;7.05;4.07;;;;;;;;;;5393403;26;20008;-57
2024/04/23 11:56:00;;;;;;;7.75;3.70;;;;;;;;;;5392882;26;20001;-58
2024/04/23 11:58:26;;;;;;;7.87;5.17;;;;;;;;;;5365091;26;20321;-56
2024/04/23 12:00:52;;;;;;;8.53;4.33;;;;;;;;;;5395259;26;20020;-55
2024/04/23 12:03:18;;;;;;;9.77;3.90;;;;;;;;;;5394663;26;20087;-55
2024/04/23 12:05:44;;;;;;;;;;;;;;;;;;5393091;26;21287;-55
2024/04/23 12:08:09;;;;;;;6.70;3.60;;;;;;;;;;5391448;26;19930;-55
2024/04/23 12:10:36;;;;;;;9.88;4.68;;;;;;;;;;5392930;26;20011;-54
2024/04/23 12:13:03;;;;;;;6.28;3.25;;;;;;;;;;5393915;26;20023;-54
2024/04/23 12:15:29;;;;;;;5.53;3.50;;;;;;;;;;5389313;26;20005;-56
2024/04/23 12:17:54;;;;;;;7.57;4.20;;;;;;;;;;5389401;26;20015;-56
2024/04/23 12:20:20;;;;;;;7.72;3.13;;;;;;;;;;5390296;26;20009;-57
2024/04/23 12:22:46;;;;;;;9.25;3.92;;;;;;;;;;5391985;26;20008;-57
2024/04/23 12:25:11;;;;;;;;;;;;;;;;;;5387457;26;20004;-57
2024/04/23 12:27:37;;;;;;;6.05;3.30;;;;;;;;;;5393333;26;19925;-57
2024/04/23 12:30:09;;;;;;;5.70;3.00;;;;;;;;;;5393571;26;20008;-55
2024/04/23 12:32:35;;;;;;;7.45;3.10;;;;;;;;;;5395969;26;20040;-56
2024/04/23 12:35:00;;;;;;;5.47;2.95;;;;;;;;;;5392569;26;20012;-58
2024/04/23 12:37:26;;;;;;;5.43;3.33;;;;;;;;;;5392869;26;20004;-57
2024/04/23 12:39:52;;;;;;;5.75;3.05;;;;;;;;;;5390899;26;21773;-56
2024/04/23 12:42:19;;;;;;;6.72;3.30;;;;;;;;;;5395486;26;20000;-56
2024/04/23 12:44:45;;;;;;;6.25;3.25;;;;;;;;;;5388024;26;20015;-57
2024/04/23 12:47:10;;;;;;;9.98;3.00;;;;;;;;;;5388804;26;20004;-56
2024/04/23 12:49:36;;;;;;;4.75;2.85;;;;;;;;;;5391842;26;20079;-57
2024/04/23 12:52:02;;;;;;;8.15;4.63;;;;;;;;;;5395453;26;20066;-58
2024/04/23 12:54:27;;;;;;;6.22;3.15;;;;;;;;;;5390828;26;20009;-57
2024/04/23 12:56:53;;;;;;;4.25;2.72;;;;;;;;;;5395314;26;19996;-58
2024/04/23 12:59:18;;;;;;;4.80;3.05;;;;;;;;;;5390888;26;20015;-57
2024/04/23 13:01:44;;;;;;;4.78;3.47;;;;;;;;;;5391485;26;20009;-56
2024/04/23 13:04:09;;;;;;;4.95;2.75;;;;;;;;;;5384173;26;20001;-57
2024/04/23 13:06:36;;;;;;;4.90;2.88;;;;;;;;;;5386921;26;20025;-54
2024/04/23 13:09:02;;;;;;;6.22;2.95;;;;;;;;;;5388972;26;20026;-57
2024/04/23 13:11:27;;;;;;;5.13;3.30;;;;;;;;;;5393819;26;20008;-56
2024/04/23 13:13:53;;;;;;;4.88;2.95;;;;;;;;;;5392141;26;20004;-57
2024/04/23 13:16:18;;;;;;;5.65;2.83;;;;;;;;;;5394585;26;20029;-57
2024/04/23 13:18:44;;;;;;;4.88;2.90;;;;;;;;;;5391585;26;20066;-59
2024/04/23 13:21:09;;;;;;;6.97;3.25;;;;;;;;;;5394276;26;20034;-60
2024/04/23 13:23:36;;;;;;;8.15;3.20;;;;;;;;;;5392525;26;20047;-57
2024/04/23 13:26:01;;;;;;;4.45;3.00;;;;;;;;;;5395397;26;20012;-57
2024/04/23 13:28:27;;;;;;;5.93;3.67;;;;;;;;;;5378279;26;20009;-57
2024/04/23 13:30:53;;;;;;;8.75;4.38;;;;;;;;;;5388359;26;20020;-58
2024/04/23 13:33:18;;;;;;;6.22;3.80;;;;;;;;;;5383882;26;20047;-58
2024/04/23 13:35:44;;;;;;;7.78;4.72;;;;;;;;;;5382686;26;20024;-58
2024/04/23 13:38:09;;;;;;;5.57;3.40;;;;;;;;;;5381831;26;20012;-60
2024/04/23 13:40:35;;;;;;;4.38;3.00;;;;;;;;;;5378004;26;20000;-57
2024/04/23 13:43:00;;;;;;;4.50;3.03;;;;;;;;;;5382465;26;20004;-57
2024/04/23 13:45:26;;;;;;;4.38;2.90;;;;;;;;;;5381448;26;19997;-60
2024/04/23 13:47:51;;;;;;;6.15;3.95;;;;;;;;;;5382654;26;20045;-57
2024/04/23 13:50:17;;;;;;;5.88;3.70;;;;;;;;;;5380348;26;20008;-58
2024/04/23 13:52:43;;;;;;;5.15;3.35;;;;;;;;;;5383408;26;20016;-59
2024/04/23 13:55:08;;;;;;;6.30;3.13;;;;;;;;;;5378310;26;19997;-57
2024/04/23 13:57:34;;;;;;;4.93;3.20;;;;;;;;;;5377290;26;20018;-57
2024/04/23 13:59:59;;;;;;;7.63;3.63;;;;;;;;;;5377751;26;20000;-60
2024/04/23 14:02:24;;;;;;;4.22;2.90;;;;;;;;;;5375309;26;20015;-59
2024/04/23 14:04:49;;;;;;;6.93;3.28;;;;;;;;;;5375404;26;20047;-59
2024/04/23 14:07:16;;;;;;;5.38;3.40;;;;;;;;;;5382830;26;19996;-59
2024/04/23 14:09:41;;;;;;;6.43;3.95;;;;;;;;;;5380689;26;20004;-58
2024/04/23 14:12:09;;;;;;;6.18;3.67;;;;;;;;;;5378817;26;20044;-58
2024/04/23 14:14:35;;;;;;;6.07;3.33;;;;;;;;;;5383056;26;20004;-58
2024/04/23 14:17:01;;;;;;;6.57;3.65;;;;;;;;;;5380583;26;20054;-58
2024/04/23 14:19:28;;;;;;;5.22;3.40;;;;;;;;;;5382909;26;19996;-59
2024/04/23 14:21:54;;;;;;;8.05;3.60;;;;;;;;;;5381536;26;20015;-60
2024/04/23 14:24:19;;;;;;;5.13;3.38;;;;;;;;;;5384196;26;20012;-59
2024/04/23 14:26:44;;;;;;;4.72;2.63;;;;;;;;;;5382917;26;20008;-59
2024/04/23 14:29:09;;;;;;;5.25;3.10;;;;;;;;;;5387782;26;20011;-59
2024/04/23 14:31:37;;;;;;;5.80;3.58;;;;;;;;;;5394037;26;20004;-60
2024/04/23 14:34:03;;;;;;;4.47;3.53;;;;;;;;;;5396635;26;19996;-60
2024/04/23 14:36:29;;;;;;;5.22;2.80;;;;;;;;;;5393208;26;20010;-60
2024/04/23 14:38:55;;;;;;;6.55;2.85;;;;;;;;;;5395280;26;20008;-60
2024/04/23 14:41:21;;;;;;;3.88;2.95;;;;;;;;;;5395165;26;20036;-59